Terminal Aerodrome Forecast
Issued by NWS Buffalo, NY

Home | Current Version | Previous Version | Text Only | Print | Product List | Glossary On
Versions: 1 2 3 4 5 6 7 8 9 10 11 12 13 14 15 16 17 18 19 20 21 22 23 24 25 26 27
000
FTUS41 KBUF 260529
TAFROC
TAF
KROC 260529Z 2606/2706 23008KT P6SM SCT250
     FM261400 25010KT P6SM BKN200
     FM261700 26012KT P6SM BKN130
     FM262200 26005KT P6SM BKN120
     FM270100 06006KT P6SM SCT130=

USA.gov is the U.S. government's official web portal to all federal, state and local government web resources and services.